sensor_id;sensor_type;location;lat;lon;timestamp;pressure;altitude;pressure_sealevel;temperature;humidity
67840;BME280;54636;51.684;5.142;2023-12-20T00:01:16;101690.75;;;5.53;100.00
67840;BME280;54636;51.684;5.142;2023-12-20T00:03:41;101699.19;;;5.55;100.00
67840;BME280;54636;51.684;5.142;2023-12-20T00:06:06;101697.66;;;5.54;100.00
67840;BME280;54636;51.684;5.142;2023-12-20T00:08:32;101690.41;;;5.51;100.00
67840;BME280;54636;51.684;5.142;2023-12-20T00:10:57;101677.72;;;5.51;100.00
67840;BME280;54636;51.684;5.142;2023-12-20T00:13:23;101672.22;;;5.55;100.00
67840;BME280;54636;51.684;5.142;2023-12-20T00:15:48;101691.25;;;5.64;100.00
67840;BME280;54636;51.684;5.142;2023-12-20T00:18:13;101680.31;;;5.55;100.00
67840;BME280;54636;51.684;5.142;2023-12-20T00:20:39;101683.94;;;5.48;100.00
67840;BME280;54636;51.684;5.142;2023-12-20T00:23:04;101680.25;;;5.42;100.00
67840;BME280;54636;51.684;5.142;2023-12-20T00:25:30;101674.78;;;5.29;100.00
67840;BME280;54636;51.684;5.142;2023-12-20T00:27:55;101686.56;;;5.36;100.00
67840;BME280;54636;51.684;5.142;2023-12-20T00:30:20;101675.69;;;5.39;100.00
67840;BME280;54636;51.684;5.142;2023-12-20T00:32:46;101684.63;;;5.36;100.00
67840;BME280;54636;51.684;5.142;2023-12-20T00:35:15;101680.41;;;5.35;100.00
67840;BME280;54636;51.684;5.142;2023-12-20T00:37:42;101680.84;;;5.34;100.00
67840;BME280;54636;51.684;5.142;2023-12-20T00:40:07;101658.38;;;5.24;100.00
67840;BME280;54636;51.684;5.142;2023-12-20T00:42:33;101655.03;;;5.20;100.00
67840;BME280;54636;51.684;5.142;2023-12-20T00:44:59;101669.81;;;5.28;100.00
67840;BME280;54636;51.684;5.142;2023-12-20T00:47:25;101640.66;;;5.10;100.00
67840;BME280;54636;51.684;5.142;2023-12-20T00:49:50;101651.59;;;5.19;100.00
67840;BME280;54636;51.684;5.142;2023-12-20T00:52:16;101641.50;;;5.07;100.00
67840;BME280;54636;51.684;5.142;2023-12-20T00:54:43;101654.88;;;5.11;100.00
67840;BME280;54636;51.684;5.142;2023-12-20T00:57:08;101601.09;;;4.75;100.00
67840;BME280;54636;51.684;5.142;2023-12-20T00:59:34;101666.53;;;5.20;100.00
67840;BME280;54636;51.684;5.142;2023-12-20T01:01:59;101639.06;;;4.96;100.00
67840;BME280;54636;51.684;5.142;2023-12-20T01:04:24;101659.84;;;5.12;100.00
67840;BME280;54636;51.684;5.142;2023-12-20T01:06:50;101674.47;;;5.11;100.00
67840;BME280;54636;51.684;5.142;2023-12-20T01:09:15;101659.75;;;5.00;100.00
67840;BME280;54636;51.684;5.142;2023-12-20T01:11:40;101666.16;;;5.06;100.00
67840;BME280;54636;51.684;5.142;2023-12-20T01:14:06;101672.78;;;5.01;100.00
67840;BME280;54636;51.684;5.142;2023-12-20T01:16:31;101673.38;;;4.92;100.00
67840;BME280;54636;51.684;5.142;2023-12-20T01:18:57;101671.34;;;4.96;100.00
67840;BME280;54636;51.684;5.142;2023-12-20T01:21:23;101671.03;;;4.94;100.00
67840;BME280;54636;51.684;5.142;2023-12-20T01:23:49;101660.56;;;4.80;100.00
67840;BME280;54636;51.684;5.142;2023-12-20T01:26:14;101656.44;;;4.76;100.00
67840;BME280;54636;51.684;5.142;2023-12-20T01:28:40;101684.72;;;4.84;100.00
67840;BME280;54636;51.684;5.142;2023-12-20T01:31:05;101686.47;;;4.74;100.00
67840;BME280;54636;51.684;5.142;2023-12-20T01:33:31;101694.88;;;4.76;100.00
67840;BME280;54636;51.684;5.142;2023-12-20T01:35:56;101686.72;;;4.80;100.00
67840;BME280;54636;51.684;5.142;2023-12-20T01:38:21;101659.97;;;4.73;100.00
67840;BME280;54636;51.684;5.142;2023-12-20T01:40:47;101660.31;;;4.75;100.00
67840;BME280;54636;51.684;5.142;2023-12-20T01:43:12;101672.09;;;4.81;100.00
67840;BME280;54636;51.684;5.142;2023-12-20T01:45:38;101664.53;;;4.76;100.00
67840;BME280;54636;51.684;5.142;2023-12-20T01:48:05;101669.56;;;4.74;100.00
67840;BME280;54636;51.684;5.142;2023-12-20T01:50:31;101672.75;;;4.69;100.00
67840;BME280;54636;51.684;5.142;2023-12-20T01:52:58;101675.84;;;4.67;100.00
67840;BME280;54636;51.684;5.142;2023-12-20T01:55:27;101657.34;;;4.53;100.00
67840;BME280;54636;51.684;5.142;2023-12-20T01:57:55;101657.00;;;4.51;100.00
67840;BME280;54636;51.684;5.142;2023-12-20T02:00:21;101673.25;;;4.63;100.00
67840;BME280;54636;51.684;5.142;2023-12-20T02:02:52;101672.34;;;4.70;100.00
67840;BME280;54636;51.684;5.142;2023-12-20T02:05:18;101644.66;;;4.53;100.00
67840;BME280;54636;51.684;5.142;2023-12-20T02:07:44;101658.81;;;4.74;100.00
67840;BME280;54636;51.684;5.142;2023-12-20T02:10:09;101669.25;;;4.88;100.00
67840;BME280;54636;51.684;5.142;2023-12-20T02:12:34;101670.25;;;4.94;100.00
67840;BME280;54636;51.684;5.142;2023-12-20T02:15:01;101677.91;;;4.95;100.00
67840;BME280;54636;51.684;5.142;2023-12-20T02:17:27;101677.16;;;4.95;100.00
67840;BME280;54636;51.684;5.142;2023-12-20T02:19:52;101690.78;;;5.04;100.00
67840;BME280;54636;51.684;5.142;2023-12-20T02:22:18;101680.69;;;5.08;100.00
67840;BME280;54636;51.684;5.142;2023-12-20T02:24:43;101680.69;;;5.08;100.00
67840;BME280;54636;51.684;5.142;2023-12-20T02:27:08;101663.44;;;4.89;100.00
67840;BME280;54636;51.684;5.142;2023-12-20T02:29:35;101668.50;;;5.04;100.00
67840;BME280;54636;51.684;5.142;2023-12-20T02:32:00;101667.25;;;5.08;100.00
67840;BME280;54636;51.684;5.142;2023-12-20T02:34:26;101647.13;;;4.96;100.00
67840;BME280;54636;51.684;5.142;2023-12-20T02:36:52;101661.94;;;5.05;100.00
67840;BME280;54636;51.684;5.142;2023-12-20T02:39:18;101651.00;;;4.95;100.00
67840;BME280;54636;51.684;5.142;2023-12-20T02:41:43;101663.53;;;5.02;100.00
67840;BME280;54636;51.684;5.142;2023-12-20T02:44:09;101633.84;;;4.89;100.00
67840;BME280;54636;51.684;5.142;2023-12-20T02:46:34;101666.66;;;5.17;100.00
67840;BME280;54636;51.684;5.142;2023-12-20T02:49:00;101672.09;;;5.29;100.00
67840;BME280;54636;51.684;5.142;2023-12-20T02:51:25;101669.22;;;5.37;100.00
67840;BME280;54636;51.684;5.142;2023-12-20T02:53:51;101652.38;;;5.33;100.00
67840;BME280;54636;51.684;5.142;2023-12-20T02:56:16;101656.41;;;5.41;100.00
67840;BME280;54636;51.684;5.142;2023-12-20T02:58:42;101658.69;;;5.42;100.00
67840;BME280;54636;51.684;5.142;2023-12-20T03:01:07;101665.50;;;5.47;100.00
67840;BME280;54636;51.684;5.142;2023-12-20T03:03:33;101657.09;;;5.45;100.00
67840;BME280;54636;51.684;5.142;2023-12-20T03:05:58;101645.88;;;5.46;100.00
67840;BME280;54636;51.684;5.142;2023-12-20T03:08:23;101644.13;;;5.40;100.00
67840;BME280;54636;51.684;5.142;2023-12-20T03:10:49;101630.50;;;5.30;100.00
67840;BME280;54636;51.684;5.142;2023-12-20T03:13:15;101607.56;;;5.10;100.00
67840;BME280;54636;51.684;5.142;2023-12-20T03:15:40;101643.22;;;5.30;100.00
67840;BME280;54636;51.684;5.142;2023-12-20T03:18:06;101640.19;;;5.28;100.00
67840;BME280;54636;51.684;5.142;2023-12-20T03:20:31;101637.91;;;5.26;100.00
67840;BME280;54636;51.684;5.142;2023-12-20T03:22:59;101601.94;;;5.04;100.00
67840;BME280;54636;51.684;5.142;2023-12-20T03:25:25;101634.88;;;5.24;100.00
67840;BME280;54636;51.684;5.142;2023-12-20T03:27:50;101642.88;;;5.28;100.00
67840;BME280;54636;51.684;5.142;2023-12-20T03:30:16;101624.53;;;5.23;100.00
67840;BME280;54636;51.684;5.142;2023-12-20T03:32:41;101574.44;;;4.96;100.00
67840;BME280;54636;51.684;5.142;2023-12-20T03:35:06;101608.72;;;5.25;100.00
67840;BME280;54636;51.684;5.142;2023-12-20T03:37:32;101603.38;;;5.38;100.00
67840;BME280;54636;51.684;5.142;2023-12-20T03:39:57;101620.31;;;5.38;100.00
67840;BME280;54636;51.684;5.142;2023-12-20T03:42:23;101621.56;;;5.34;100.00
67840;BME280;54636;51.684;5.142;2023-12-20T03:44:48;101627.53;;;5.41;100.00
67840;BME280;54636;51.684;5.142;2023-12-20T03:47:13;101619.59;;;5.50;100.00
67840;BME280;54636;51.684;5.142;2023-12-20T03:49:39;101613.88;;;5.48;100.00
67840;BME280;54636;51.684;5.142;2023-12-20T03:52:04;101612.59;;;5.53;100.00
67840;BME280;54636;51.684;5.142;2023-12-20T03:54:30;101612.19;;;5.54;100.00
67840;BME280;54636;51.684;5.142;2023-12-20T03:56:55;101626.91;;;5.66;100.00
67840;BME280;54636;51.684;5.142;2023-12-20T03:59:20;101584.84;;;5.40;100.00
67840;BME280;54636;51.684;5.142;2023-12-20T04:01:46;101616.63;;;5.61;100.00
67840;BME280;54636;51.684;5.142;2023-12-20T04:04:12;101619.56;;;5.67;100.00
67840;BME280;54636;51.684;5.142;2023-12-20T04:06:38;101628.97;;;5.75;100.00
67840;BME280;54636;51.684;5.142;2023-12-20T04:09:03;101629.63;;;5.79;100.00
67840;BME280;54636;51.684;5.142;2023-12-20T04:11:29;101639.44;;;5.85;100.00
67840;BME280;54636;51.684;5.142;2023-12-20T04:13:54;101598.09;;;5.63;100.00
67840;BME280;54636;51.684;5.142;2023-12-20T04:16:19;101610.44;;;5.77;100.00
67840;BME280;54636;51.684;5.142;2023-12-20T04:18:45;101615.31;;;5.82;100.00
67840;BME280;54636;51.684;5.142;2023-12-20T04:21:10;101634.78;;;6.02;100.00
67840;BME280;54636;51.684;5.142;2023-12-20T04:23:35;101635.19;;;6.01;100.00
67840;BME280;54636;51.684;5.142;2023-12-20T04:26:01;101639.63;;;6.07;100.00
67840;BME280;54636;51.684;5.142;2023-12-20T04:28:26;101640.72;;;6.10;100.00
67840;BME280;54636;51.684;5.142;2023-12-20T04:30:52;101609.50;;;5.96;100.00
67840;BME280;54636;51.684;5.142;2023-12-20T04:33:17;101634.78;;;6.02;100.00
67840;BME280;54636;51.684;5.142;2023-12-20T04:35:42;101633.59;;;6.03;100.00
67840;BME280;54636;51.684;5.142;2023-12-20T04:38:08;101632.59;;;5.97;100.00
67840;BME280;54636;51.684;5.142;2023-12-20T04:40:34;101627.22;;;5.97;100.00
67840;BME280;54636;51.684;5.142;2023-12-20T04:42:59;101611.94;;;5.78;100.00
67840;BME280;54636;51.684;5.142;2023-12-20T04:45:25;101629.41;;;5.86;100.00
67840;BME280;54636;51.684;5.142;2023-12-20T04:47:51;101632.38;;;5.91;100.00
67840;BME280;54636;51.684;5.142;2023-12-20T04:50:16;101614.69;;;5.90;100.00
67840;BME280;54636;51.684;5.142;2023-12-20T04:52:42;101618.03;;;5.94;100.00
67840;BME280;54636;51.684;5.142;2023-12-20T04:55:07;101638.03;;;6.10;100.00
67840;BME280;54636;51.684;5.142;2023-12-20T04:57:34;101627.03;;;6.17;100.00
67840;BME280;54636;51.684;5.142;2023-12-20T04:59:59;101625.75;;;6.21;100.00
67840;BME280;54636;51.684;5.142;2023-12-20T05:02:25;101622.28;;;6.21;100.00
67840;BME280;54636;51.684;5.142;2023-12-20T05:04:50;101619.16;;;6.22;100.00
67840;BME280;54636;51.684;5.142;2023-12-20T05:07:16;101619.91;;;6.23;100.00
67840;BME280;54636;51.684;5.142;2023-12-20T05:09:41;101619.91;;;6.23;100.00
67840;BME280;54636;51.684;5.142;2023-12-20T05:12:07;101598.31;;;6.10;100.00
67840;BME280;54636;51.684;5.142;2023-12-20T05:14:32;101622.19;;;6.24;100.00
67840;BME280;54636;51.684;5.142;2023-12-20T05:16:58;101598.75;;;6.09;100.00
67840;BME280;54636;51.684;5.142;2023-12-20T05:19:24;101591.94;;;5.91;100.00
67840;BME280;54636;51.684;5.142;2023-12-20T05:21:49;101616.53;;;5.93;100.00
67840;BME280;54636;51.684;5.142;2023-12-20T05:24:15;101615.72;;;5.80;100.00
67840;BME280;54636;51.684;5.142;2023-12-20T05:26:40;101603.63;;;5.72;100.00
67840;BME280;54636;51.684;5.142;2023-12-20T05:29:06;101576.50;;;5.50;100.00
67840;BME280;54636;51.684;5.142;2023-12-20T05:31:32;101601.41;;;5.54;100.00
67840;BME280;54636;51.684;5.142;2023-12-20T05:33:57;101604.63;;;5.49;100.00
67840;BME280;54636;51.684;5.142;2023-12-20T05:36:23;101615.41;;;5.49;100.00
67840;BME280;54636;51.684;5.142;2023-12-20T05:38:48;101609.78;;;5.44;100.00
67840;BME280;54636;51.684;5.142;2023-12-20T05:41:14;101613.06;;;5.35;100.00
67840;BME280;54636;51.684;5.142;2023-12-20T05:43:39;101605.69;;;5.23;100.00
67840;BME280;54636;51.684;5.142;2023-12-20T05:46:05;101619.31;;;5.32;100.00
67840;BME280;54636;51.684;5.142;2023-12-20T05:48:30;101615.59;;;5.26;100.00
67840;BME280;54636;51.684;5.142;2023-12-20T05:50:56;101619.97;;;5.36;100.00
67840;BME280;54636;51.684;5.142;2023-12-20T05:53:21;101620.25;;;5.25;100.00
67840;BME280;54636;51.684;5.142;2023-12-20T05:55:46;101646.06;;;5.39;100.00
67840;BME280;54636;51.684;5.142;2023-12-20T05:58:12;101640.91;;;5.45;100.00
67840;BME280;54636;51.684;5.142;2023-12-20T06:00:37;101633.69;;;5.42;100.00
67840;BME280;54636;51.684;5.142;2023-12-20T06:03:03;101635.44;;;5.48;100.00
67840;BME280;54636;51.684;5.142;2023-12-20T06:05:30;101618.59;;;5.44;100.00
67840;BME280;54636;51.684;5.142;2023-12-20T06:07:55;101609.44;;;5.42;100.00
67840;BME280;54636;51.684;5.142;2023-12-20T06:10:26;101627.13;;;5.43;100.00
67840;BME280;54636;51.684;5.142;2023-12-20T06:12:51;101605.16;;;5.28;100.00
67840;BME280;54636;51.684;5.142;2023-12-20T06:15:17;101623.94;;;5.32;100.00
67840;BME280;54636;51.684;5.142;2023-12-20T06:17:42;101624.28;;;5.34;100.00
67840;BME280;54636;51.684;5.142;2023-12-20T06:20:08;101633.38;;;5.23;100.00
67840;BME280;54636;51.684;5.142;2023-12-20T06:22:35;101628.94;;;5.17;100.00
67840;BME280;54636;51.684;5.142;2023-12-20T06:25:00;101609.94;;;5.08;100.00
67840;BME280;54636;51.684;5.142;2023-12-20T06:27:25;101615.16;;;5.15;100.00
67840;BME280;54636;51.684;5.142;2023-12-20T06:29:51;101625.72;;;5.22;100.00
67840;BME280;54636;51.684;5.142;2023-12-20T06:32:16;101611.94;;;5.20;100.00
67840;BME280;54636;51.684;5.142;2023-12-20T06:34:42;101631.59;;;5.33;100.00
67840;BME280;54636;51.684;5.142;2023-12-20T06:37:07;101631.41;;;5.40;100.00
67840;BME280;54636;51.684;5.142;2023-12-20T06:39:32;101601.22;;;5.33;100.00
67840;BME280;54636;51.684;5.142;2023-12-20T06:41:59;101631.75;;;5.42;100.00
67840;BME280;54636;51.684;5.142;2023-12-20T06:44:25;101611.88;;;5.36;100.00
67840;BME280;54636;51.684;5.142;2023-12-20T06:46:50;101628.13;;;5.49;100.00
67840;BME280;54636;51.684;5.142;2023-12-20T06:49:16;101626.75;;;5.57;100.00
67840;BME280;54636;51.684;5.142;2023-12-20T06:51:41;101624.06;;;5.57;100.00
67840;BME280;54636;51.684;5.142;2023-12-20T06:54:06;101614.78;;;5.58;100.00
67840;BME280;54636;51.684;5.142;2023-12-20T06:56:32;101621.50;;;5.66;100.00
67840;BME280;54636;51.684;5.142;2023-12-20T06:58:57;101577.69;;;5.49;100.00
67840;BME280;54636;51.684;5.142;2023-12-20T07:01:23;101618.31;;;5.84;100.00
67840;BME280;54636;51.684;5.142;2023-12-20T07:03:48;101615.50;;;5.87;100.00
67840;BME280;54636;51.684;5.142;2023-12-20T07:06:13;101615.50;;;5.87;100.00
67840;BME280;54636;51.684;5.142;2023-12-20T07:08:41;101617.88;;;5.85;100.00
67840;BME280;54636;51.684;5.142;2023-12-20T07:11:06;101558.38;;;5.51;100.00
67840;BME280;54636;51.684;5.142;2023-12-20T07:13:32;101616.19;;;5.91;100.00
67840;BME280;54636;51.684;5.142;2023-12-20T07:15:57;101615.00;;;5.92;100.00
67840;BME280;54636;51.684;5.142;2023-12-20T07:18:23;101572.88;;;5.70;100.00
67840;BME280;54636;51.684;5.142;2023-12-20T07:20:48;101622.91;;;6.00;100.00
67840;BME280;54636;51.684;5.142;2023-12-20T07:23:13;101618.50;;;6.06;100.00
67840;BME280;54636;51.684;5.142;2023-12-20T07:25:39;101624.22;;;6.08;100.00
67840;BME280;54636;51.684;5.142;2023-12-20T07:28:04;101606.84;;;6.09;100.00
67840;BME280;54636;51.684;5.142;2023-12-20T07:30:30;101608.69;;;6.12;100.00
67840;BME280;54636;51.684;5.142;2023-12-20T07:32:55;101611.38;;;6.12;100.00
67840;BME280;54636;51.684;5.142;2023-12-20T07:35:22;101599.84;;;6.11;100.00
67840;BME280;54636;51.684;5.142;2023-12-20T07:37:48;101604.81;;;6.13;100.00
67840;BME280;54636;51.684;5.142;2023-12-20T07:40:13;101605.88;;;6.15;100.00
67840;BME280;54636;51.684;5.142;2023-12-20T07:42:39;101589.91;;;6.08;100.00
67840;BME280;54636;51.684;5.142;2023-12-20T07:45:05;101602.22;;;6.09;100.00
67840;BME280;54636;51.684;5.142;2023-12-20T07:47:30;101594.41;;;5.99;100.00
67840;BME280;54636;51.684;5.142;2023-12-20T07:49:55;101617.84;;;6.14;100.00
67840;BME280;54636;51.684;5.142;2023-12-20T07:52:21;101611.72;;;6.14;100.00
67840;BME280;54636;51.684;5.142;2023-12-20T07:54:48;101599.41;;;6.13;100.00
67840;BME280;54636;51.684;5.142;2023-12-20T07:57:13;101619.91;;;6.23;100.00
67840;BME280;54636;51.684;5.142;2023-12-20T07:59:38;101625.66;;;6.25;100.00
67840;BME280;54636;51.684;5.142;2023-12-20T08:02:04;101629.44;;;6.27;100.00
67840;BME280;54636;51.684;5.142;2023-12-20T08:04:29;101631.69;;;6.29;100.00
67840;BME280;54636;51.684;5.142;2023-12-20T08:06:55;101621.13;;;6.35;100.00
67840;BME280;54636;51.684;5.142;2023-12-20T08:09:20;101621.13;;;6.35;100.00
67840;BME280;54636;51.684;5.142;2023-12-20T08:11:49;101622.63;;;6.36;100.00
67840;BME280;54636;51.684;5.142;2023-12-20T08:14:15;101622.63;;;6.36;100.00
67840;BME280;54636;51.684;5.142;2023-12-20T08:16:40;101617.78;;;6.31;100.00
67840;BME280;54636;51.684;5.142;2023-12-20T08:19:06;101630.53;;;6.43;100.00
67840;BME280;54636;51.684;5.142;2023-12-20T08:21:31;101634.50;;;6.38;100.00
67840;BME280;54636;51.684;5.142;2023-12-20T08:23:56;101613.00;;;6.22;100.00
67840;BME280;54636;51.684;5.142;2023-12-20T08:26:22;101635.47;;;6.32;100.00
67840;BME280;54636;51.684;5.142;2023-12-20T08:28:48;101635.81;;;6.34;100.00
67840;BME280;54636;51.684;5.142;2023-12-20T08:31:17;101613.47;;;6.33;100.00
67840;BME280;54636;51.684;5.142;2023-12-20T08:33:47;101626.31;;;6.42;100.00
67840;BME280;54636;51.684;5.142;2023-12-20T08:36:13;101622.31;;;6.34;100.00
67840;BME280;54636;51.684;5.142;2023-12-20T08:38:38;101611.28;;;6.28;100.00
67840;BME280;54636;51.684;5.142;2023-12-20T08:41:04;101624.16;;;6.37;100.00
67840;BME280;54636;51.684;5.142;2023-12-20T08:43:31;101629.22;;;6.35;100.00
67840;BME280;54636;51.684;5.142;2023-12-20T08:45:57;101619.41;;;6.41;100.00
67840;BME280;54636;51.684;5.142;2023-12-20T08:48:22;101619.94;;;6.36;100.00
67840;BME280;54636;51.684;5.142;2023-12-20T08:50:47;101603.97;;;6.28;100.00
67840;BME280;54636;51.684;5.142;2023-12-20T08:53:15;101619.63;;;6.46;100.00
67840;BME280;54636;51.684;5.142;2023-12-20T08:55:41;101595.44;;;6.43;100.00
67840;BME280;54636;51.684;5.142;2023-12-20T08:58:07;101621.56;;;6.46;100.00
67840;BME280;54636;51.684;5.142;2023-12-20T09:00:36;101618.44;;;6.47;100.00
67840;BME280;54636;51.684;5.142;2023-12-20T09:03:02;101586.16;;;6.31;100.00
67840;BME280;54636;51.684;5.142;2023-12-20T09:05:27;101616.50;;;6.48;100.00
67840;BME280;54636;51.684;5.142;2023-12-20T09:07:53;101613.97;;;6.53;100.00
67840;BME280;54636;51.684;5.142;2023-12-20T09:10:19;101612.34;;;6.56;100.00
67840;BME280;54636;51.684;5.142;2023-12-20T09:12:54;101613.22;;;6.66;100.00
67840;BME280;54636;51.684;5.142;2023-12-20T09:15:25;101594.56;;;6.46;100.00
67840;BME280;54636;51.684;5.142;2023-12-20T09:17:51;101625.63;;;6.63;100.00
67840;BME280;54636;51.684;5.142;2023-12-20T09:20:17;101608.25;;;6.51;100.00
67840;BME280;54636;51.684;5.142;2023-12-20T09:22:42;101627.03;;;6.68;100.00
67840;BME280;54636;51.684;5.142;2023-12-20T09:25:09;101604.16;;;6.59;100.00
67840;BME280;54636;51.684;5.142;2023-12-20T09:27:35;101600.81;;;6.68;100.00
67840;BME280;54636;51.684;5.142;2023-12-20T09:30:00;101605.22;;;6.87;100.00
67840;BME280;54636;51.684;5.142;2023-12-20T09:32:26;101588.69;;;6.73;100.00
67840;BME280;54636;51.684;5.142;2023-12-20T09:34:51;101593.22;;;6.76;100.00
67840;BME280;54636;51.684;5.142;2023-12-20T09:37:16;101610.41;;;6.82;100.00
67840;BME280;54636;51.684;5.142;2023-12-20T09:39:42;101606.63;;;6.79;100.00
67840;BME280;54636;51.684;5.142;2023-12-20T09:42:07;101592.50;;;6.63;100.00
67840;BME280;54636;51.684;5.142;2023-12-20T09:44:33;101588.69;;;6.73;100.00
67840;BME280;54636;51.684;5.142;2023-12-20T09:47:03;101597.66;;;6.82;100.00
67840;BME280;54636;51.684;5.142;2023-12-20T09:49:29;101603.38;;;6.84;100.00
67840;BME280;54636;51.684;5.142;2023-12-20T09:51:55;101607.03;;;6.90;100.00
67840;BME280;54636;51.684;5.142;2023-12-20T09:54:22;101604.66;;;6.92;100.00
67840;BME280;54636;51.684;5.142;2023-12-20T09:56:48;101616.66;;;6.91;100.00
67840;BME280;54636;51.684;5.142;2023-12-20T09:59:14;101615.78;;;6.94;100.00
67840;BME280;54636;51.684;5.142;2023-12-20T10:01:40;101614.38;;;7.03;100.00
67840;BME280;54636;51.684;5.142;2023-12-20T10:04:07;101616.84;;;6.97;100.00
67840;BME280;54636;51.684;5.142;2023-12-20T10:06:36;101601.53;;;6.94;100.00
67840;BME280;54636;51.684;5.142;2023-12-20T10:09:02;101604.63;;;7.05;100.00
67840;BME280;54636;51.684;5.142;2023-12-20T10:11:29;101590.09;;;6.90;100.00
67840;BME280;54636;51.684;5.142;2023-12-20T10:13:59;101610.78;;;7.06;100.00
67840;BME280;54636;51.684;5.142;2023-12-20T10:16:26;101595.13;;;7.01;100.00
67840;BME280;54636;51.684;5.142;2023-12-20T10:18:55;101584.88;;;6.96;100.00
67840;BME280;54636;51.684;5.142;2023-12-20T10:21:22;101609.47;;;7.10;100.00
67840;BME280;54636;51.684;5.142;2023-12-20T10:23:48;101608.84;;;7.06;100.00
67840;BME280;54636;51.684;5.142;2023-12-20T10:26:27;101582.28;;;7.05;100.00
67840;BME280;54636;51.684;5.142;2023-12-20T10:28:54;101581.06;;;7.06;100.00
67840;BME280;54636;51.684;5.142;2023-12-20T10:31:31;101599.44;;;7.11;100.00
67840;BME280;54636;51.684;5.142;2023-12-20T10:33:57;101584.97;;;7.05;100.00
67840;BME280;54636;51.684;5.142;2023-12-20T10:36:25;101602.44;;;7.13;100.00
67840;BME280;54636;51.684;5.142;2023-12-20T10:38:53;101583.97;;;7.11;100.00
67840;BME280;54636;51.684;5.142;2023-12-20T10:41:30;101605.09;;;7.25;100.00
67840;BME280;54636;51.684;5.142;2023-12-20T10:43:59;101571.09;;;7.15;100.00
67840;BME280;54636;51.684;5.142;2023-12-20T10:46:25;101582.19;;;7.17;100.00
67840;BME280;54636;51.684;5.142;2023-12-20T10:48:53;101603.22;;;7.35;100.00
67840;BME280;54636;51.684;5.142;2023-12-20T10:51:20;101574.94;;;7.27;100.00
67840;BME280;54636;51.684;5.142;2023-12-20T10:53:47;101578.78;;;7.39;100.00
67840;BME280;54636;51.684;5.142;2023-12-20T10:56:16;101551.69;;;7.30;100.00
67840;BME280;54636;51.684;5.142;2023-12-20T10:58:43;101563.75;;;7.38;100.00
67840;BME280;54636;51.684;5.142;2023-12-20T11:01:12;101582.88;;;7.43;100.00
67840;BME280;54636;51.684;5.142;2023-12-20T11:03:43;101577.47;;;7.43;100.00
67840;BME280;54636;51.684;5.142;2023-12-20T11:14:20;101551.56;;;7.33;100.00
67840;BME280;54636;51.684;5.142;2023-12-20T11:16:47;101564.56;;;7.47;100.00
67840;BME280;54636;51.684;5.142;2023-12-20T11:19:13;101569.22;;;7.47;100.00
67840;BME280;54636;51.684;5.142;2023-12-20T11:21:41;101565.03;;;7.46;100.00
67840;BME280;54636;51.684;5.142;2023-12-20T11:24:06;101544.22;;;7.34;100.00
67840;BME280;54636;51.684;5.142;2023-12-20T11:26:32;101555.78;;;7.56;100.00
67840;BME280;54636;51.684;5.142;2023-12-20T11:29:32;101562.25;;;7.58;100.00
67840;BME280;54636;51.684;5.142;2023-12-20T11:31:59;101543.47;;;7.55;100.00
67840;BME280;54636;51.684;5.142;2023-12-20T11:34:31;101550.56;;;7.62;100.00
67840;BME280;54636;51.684;5.142;2023-12-20T11:37:02;101546.72;;;7.72;100.00
67840;BME280;54636;51.684;5.142;2023-12-20T11:39:28;101547.47;;;7.72;100.00
67840;BME280;54636;51.684;5.142;2023-12-20T11:41:55;101540.13;;;7.73;100.00
67840;BME280;54636;51.684;5.142;2023-12-20T11:44:21;101534.72;;;7.82;100.00
67840;BME280;54636;51.684;5.142;2023-12-20T11:46:47;101546.03;;;7.89;100.00
67840;BME280;54636;51.684;5.142;2023-12-20T11:49:12;101532.34;;;7.84;100.00
67840;BME280;54636;51.684;5.142;2023-12-20T11:51:41;101530.69;;;7.86;100.00
67840;BME280;54636;51.684;5.142;2023-12-20T11:54:07;101527.72;;;7.93;100.00
67840;BME280;54636;51.684;5.142;2023-12-20T11:56:35;101522.63;;;7.96;100.00
67840;BME280;54636;51.684;5.142;2023-12-20T11:59:01;101527.16;;;7.99;100.00
67840;BME280;54636;51.684;5.142;2023-12-20T12:01:26;101509.72;;;8.00;100.00
67840;BME280;54636;51.684;5.142;2023-12-20T12:04:03;101523.16;;;8.12;100.00
67840;BME280;54636;51.684;5.142;2023-12-20T12:06:28;101513.53;;;8.11;100.00
67840;BME280;54636;51.684;5.142;2023-12-20T12:08:54;101523.66;;;8.29;100.00
67840;BME280;54636;51.684;5.142;2023-12-20T12:11:21;101505.28;;;8.24;100.00
67840;BME280;54636;51.684;5.142;2023-12-20T12:13:46;101517.25;;;8.36;100.00
67840;BME280;54636;51.684;5.142;2023-12-20T12:16:12;101515.84;;;8.31;100.00
67840;BME280;54636;51.684;5.142;2023-12-20T12:18:37;101519.94;;;8.36;100.00
67840;BME280;54636;51.684;5.142;2023-12-20T12:21:03;101499.28;;;8.20;100.00
67840;BME280;54636;51.684;5.142;2023-12-20T12:23:28;101520.84;;;8.33;100.00
67840;BME280;54636;51.684;5.142;2023-12-20T12:25:54;101515.59;;;8.38;100.00
67840;BME280;54636;51.684;5.142;2023-12-20T12:28:20;101515.59;;;8.38;100.00
67840;BME280;54636;51.684;5.142;2023-12-20T12:30:58;101512.75;;;8.42;100.00
67840;BME280;54636;51.684;5.142;2023-12-20T12:33:25;101508.97;;;8.39;100.00
67840;BME280;54636;51.684;5.142;2023-12-20T12:35:51;101508.66;;;8.46;100.00
67840;BME280;54636;51.684;5.142;2023-12-20T12:38:19;101484.16;;;8.41;100.00
67840;BME280;54636;51.684;5.142;2023-12-20T12:40:45;101498.16;;;8.57;100.00
67840;BME280;54636;51.684;5.142;2023-12-20T12:43:10;101500.28;;;8.63;100.00
67840;BME280;54636;51.684;5.142;2023-12-20T12:45:36;101495.16;;;8.65;100.00
67840;BME280;54636;51.684;5.142;2023-12-20T12:48:01;101496.97;;;8.68;100.00
67840;BME280;54636;51.684;5.142;2023-12-20T12:50:26;101495.47;;;8.67;100.00
67840;BME280;54636;51.684;5.142;2023-12-20T12:52:53;101466.56;;;8.54;100.00